createdAt,value
2023-02-01T00:00:58.213Z,101063.50
2023-02-01T00:03:25.165Z,101068.97
2023-02-01T00:05:59.848Z,101076.28
2023-02-01T00:08:27.312Z,101078.00
2023-02-01T00:11:09.559Z,101063.72
2023-02-01T00:13:39.270Z,101063.72
2023-02-01T00:16:13.948Z,101062.09
2023-02-01T00:18:40.960Z,101063.16
2023-02-01T00:21:07.864Z,101053.41
2023-02-01T00:23:36.935Z,101063.88
2023-02-01T00:26:06.651Z,101063.88
2023-02-01T00:28:33.978Z,101055.00
2023-02-01T00:31:04.836Z,101053.28
2023-02-01T00:33:33.115Z,101051.56
2023-02-01T00:36:02.771Z,101039.22
2023-02-01T00:38:31.480Z,101037.59
2023-02-01T00:41:07.153Z,101039.16
2023-02-01T00:43:34.983Z,101035.78
2023-02-01T00:46:02.446Z,101036.56
2023-02-01T00:48:30.301Z,101039.38
2023-02-01T00:51:10.206Z,101033.03
2023-02-01T00:53:37.934Z,101041.09
2023-02-01T00:56:06.200Z,101036.66
2023-02-01T00:58:34.181Z,101035.72
2023-02-01T01:01:12.587Z,101043.72
2023-02-01T01:03:44.050Z,101020.88
2023-02-01T01:06:18.733Z,101020.22
2023-02-01T01:08:45.737Z,101035.84
2023-02-01T01:11:20.847Z,101029.59
2023-02-01T01:13:50.189Z,101019.69
2023-02-01T01:16:18.166Z,101034.84
2023-02-01T01:18:45.659Z,101033.81
2023-02-01T01:21:15.417Z,101027.53
2023-02-01T01:23:43.080Z,101036.34
2023-02-01T01:26:16.553Z,101042.53
2023-02-01T01:28:43.866Z,101029.34
2023-02-01T01:31:13.292Z,101026.75
2023-02-01T01:33:40.557Z,101034.75
2023-02-01T01:36:12.695Z,101034.69
2023-02-01T01:38:41.240Z,101031.13
2023-02-01T01:41:10.193Z,101032.97
2023-02-01T01:44:01.523Z,101024.06
2023-02-01T01:46:36.283Z,101023.13
2023-02-01T01:49:25.168Z,101009.03
2023-02-01T01:51:59.263Z,101026.50
2023-02-01T01:54:37.482Z,101011.38
2023-02-01T01:57:20.000Z,101005.16
2023-02-01T01:59:59.225Z,100988.44
2023-02-01T02:02:26.347Z,100983.09
2023-02-01T02:04:53.354Z,100987.50
2023-02-01T02:07:27.972Z,100983.06
2023-02-01T02:10:00.931Z,100996.41
2023-02-01T02:12:29.440Z,100987.41
2023-02-01T02:14:56.871Z,100988.22
2023-02-01T02:17:31.446Z,100980.91
2023-02-01T02:20:40.926Z,100977.31
2023-02-01T02:23:56.952Z,100966.00
2023-02-01T02:26:45.169Z,100963.16
2023-02-01T02:29:50.938Z,100962.41
2023-02-01T02:32:59.350Z,100951.97
2023-02-01T02:36:00.640Z,100947.34
2023-02-01T02:39:02.020Z,100959.88
2023-02-01T02:42:23.699Z,100951.25
2023-02-01T02:45:23.082Z,100951.25
2023-02-01T02:48:09.673Z,100945.00
2023-02-01T02:51:03.826Z,100945.00
2023-02-01T02:54:01.227Z,100943.03
2023-02-01T02:56:48.116Z,100935.63
2023-02-01T02:59:40.007Z,100942.78
2023-02-01T03:02:27.346Z,100933.06
2023-02-01T03:04:57.400Z,100931.31
2023-02-01T03:07:59.282Z,100931.00
2023-02-01T03:11:03.386Z,100931.84
2023-02-01T03:13:42.835Z,100927.16
2023-02-01T03:16:37.686Z,100923.44
2023-02-01T03:19:24.990Z,100912.63
2023-02-01T03:22:05.859Z,100903.72
2023-02-01T03:24:49.080Z,100903.72
2023-02-01T03:27:42.121Z,100887.81
2023-02-01T03:30:26.775Z,100892.06
2023-02-01T03:33:03.000Z,100891.13
2023-02-01T03:35:55.668Z,100873.53
2023-02-01T03:39:19.167Z,100879.44
2023-02-01T03:42:00.604Z,100869.84
2023-02-01T03:44:55.146Z,100877.88
2023-02-01T03:47:27.139Z,100877.00
2023-02-01T03:50:00.324Z,100864.44
2023-02-01T03:52:39.308Z,100863.66
2023-02-01T03:55:07.676Z,100859.09
2023-02-01T03:57:40.613Z,100863.09
2023-02-01T04:00:16.023Z,100855.88
2023-02-01T04:02:45.149Z,100860.16
2023-02-01T04:05:12.736Z,100836.53
2023-02-01T04:07:45.345Z,100849.09
2023-02-01T04:10:13.163Z,100851.78
2023-02-01T04:12:40.425Z,100845.84
2023-02-01T04:15:08.315Z,100845.94
2023-02-01T04:17:35.584Z,100852.41
2023-02-01T04:20:02.453Z,100843.78
2023-02-01T04:22:30.603Z,100847.16
2023-02-01T04:24:57.498Z,100838.19
2023-02-01T04:29:53.262Z,100837.25
2023-02-01T04:32:20.818Z,100846.97
2023-02-01T04:34:47.844Z,100838.38
2023-02-01T04:37:14.775Z,100838.63
2023-02-01T04:39:41.683Z,100836.03
2023-02-01T04:42:09.575Z,100827.25
2023-02-01T04:44:37.903Z,100838.72
2023-02-01T04:47:04.885Z,100839.56
2023-02-01T04:49:31.778Z,100826.31
2023-02-01T04:51:58.643Z,100832.59
2023-02-01T04:54:26.233Z,100829.72
2023-02-01T04:56:53.217Z,100826.13
2023-02-01T04:59:20.194Z,100832.25
2023-02-01T05:01:48.924Z,100817.19
2023-02-01T05:04:16.009Z,100820.03
2023-02-01T05:06:42.919Z,100817.53
2023-02-01T05:09:09.975Z,100824.66
2023-02-01T05:11:55.892Z,100804.75
2023-02-01T05:14:22.875Z,100811.72
2023-02-01T05:16:49.861Z,100812.56
2023-02-01T05:19:16.976Z,100805.50
2023-02-01T05:21:43.872Z,100807.47
2023-02-01T05:24:10.975Z,100819.72
2023-02-01T05:26:39.142Z,100804.81
2023-02-01T05:29:06.892Z,100815.50
2023-02-01T05:31:34.003Z,100804.06
2023-02-01T05:34:00.958Z,100808.50
2023-02-01T05:36:28.287Z,100790.88
2023-02-01T05:38:55.268Z,100794.47
2023-02-01T05:41:22.446Z,100791.03
2023-02-01T05:43:49.310Z,100791.97
2023-02-01T05:46:16.222Z,100788.44
2023-02-01T05:48:43.882Z,100794.63
2023-02-01T05:51:12.148Z,100784.25
2023-02-01T05:53:39.310Z,100771.19
2023-02-01T05:56:07.071Z,100796.09
2023-02-01T05:58:34.279Z,100801.56
2023-02-01T06:01:02.067Z,100789.41
2023-02-01T06:03:29.152Z,100791.00
2023-02-01T06:05:56.397Z,100795.44
2023-02-01T06:08:26.536Z,100790.28
2023-02-01T06:11:04.077Z,100801.72
2023-02-01T06:13:34.020Z,100800.97
2023-02-01T06:16:06.886Z,100807.00
2023-02-01T06:18:35.349Z,100810.47
2023-02-01T06:21:03.217Z,100801.81
2023-02-01T06:23:31.405Z,100797.41
2023-02-01T06:26:06.744Z,100809.56
2023-02-01T06:28:35.285Z,100816.53
2023-02-01T06:31:08.477Z,100812.84
2023-02-01T06:33:36.935Z,100811.06
2023-02-01T06:36:07.462Z,100811.75
2023-02-01T06:38:38.185Z,100820.47
2023-02-01T06:41:06.117Z,100824.94
2023-02-01T06:43:35.675Z,100812.31
2023-02-01T06:46:05.748Z,100807.72
2023-02-01T06:48:33.599Z,100807.56
2023-02-01T06:51:00.697Z,100809.56
2023-02-01T06:53:28.927Z,100810.69
2023-02-01T06:56:03.956Z,100820.34
2023-02-01T06:58:32.717Z,100817.53
2023-02-01T07:01:05.907Z,100828.78
2023-02-01T07:03:32.936Z,100824.34
2023-02-01T07:05:59.968Z,100825.88
2023-02-01T07:08:29.701Z,100820.38
2023-02-01T07:10:56.825Z,100809.72
2023-02-01T07:13:24.119Z,100839.47
2023-02-01T07:15:51.289Z,100831.53
2023-02-01T07:18:18.225Z,100835.59
2023-02-01T07:20:52.524Z,100831.66
2023-02-01T07:23:20.195Z,100818.13
2023-02-01T07:25:47.539Z,100826.06
2023-02-01T07:28:14.578Z,100828.63
2023-02-01T07:30:42.646Z,100840.78
2023-02-01T07:33:09.611Z,100825.97
2023-02-01T07:35:36.800Z,100831.59
2023-02-01T07:38:03.845Z,100827.13
2023-02-01T07:40:31.355Z,100837.25
2023-02-01T07:42:58.455Z,100848.31
2023-02-01T07:45:25.817Z,100854.16
2023-02-01T07:47:54.352Z,100846.06
2023-02-01T07:50:21.577Z,100863.91
2023-02-01T07:52:48.714Z,100852.78
2023-02-01T07:55:15.731Z,100848.91
2023-02-01T07:57:44.601Z,100846.84
2023-02-01T08:00:31.136Z,100861.41
2023-02-01T08:03:01.765Z,100843.63
2023-02-01T08:05:29.137Z,100847.28
2023-02-01T08:07:56.217Z,100852.63
2023-02-01T08:10:23.607Z,100861.94
2023-02-01T08:12:52.830Z,100854.16
2023-02-01T08:15:19.848Z,100847.00
2023-02-01T08:17:51.494Z,100875.03
2023-02-01T08:20:19.833Z,100873.13
2023-02-01T08:22:46.909Z,100877.44
2023-02-01T08:25:13.923Z,100864.75
2023-02-01T08:27:40.950Z,100869.16
2023-02-01T08:30:09.194Z,100876.03
2023-02-01T08:32:36.456Z,100861.94
2023-02-01T08:35:05.435Z,100864.50
2023-02-01T08:37:33.100Z,100869.84
2023-02-01T08:40:00.397Z,100860.19
2023-02-01T08:42:46.394Z,100858.88
2023-02-01T08:45:13.572Z,100857.84
2023-02-01T08:47:40.667Z,100851.97
2023-02-01T08:50:08.298Z,100852.06
2023-02-01T08:52:37.881Z,100874.25
2023-02-01T08:55:06.793Z,100868.03
2023-02-01T08:57:34.785Z,100876.03
2023-02-01T09:00:02.181Z,100878.22
2023-02-01T09:02:29.186Z,100874.25
2023-02-01T09:04:59.383Z,100883.91
2023-02-01T09:07:26.425Z,100887.34
2023-02-01T09:09:55.499Z,100877.50
2023-02-01T09:12:22.488Z,100881.75
2023-02-01T09:14:49.620Z,100878.38
2023-02-01T09:17:16.756Z,100890.19
2023-02-01T09:19:43.685Z,100879.34
2023-02-01T09:22:10.889Z,100871.16
2023-02-01T09:24:38.271Z,100865.72
2023-02-01T09:27:05.422Z,100865.28
2023-02-01T09:29:32.507Z,100867.50
2023-02-01T09:32:03.943Z,100852.66
2023-02-01T09:34:31.781Z,100860.00
2023-02-01T09:36:58.829Z,100867.53
2023-02-01T09:39:26.112Z,100875.13
2023-02-01T09:42:17.801Z,100849.25
2023-02-01T09:45:20.592Z,100838.19
2023-02-01T09:47:54.987Z,100864.13
2023-02-01T09:50:29.896Z,100850.94
2023-02-01T09:53:13.161Z,100860.69
2023-02-01T09:55:52.715Z,100870.91
2023-02-01T09:59:00.104Z,100865.50
2023-02-01T10:01:28.127Z,100868.22
2023-02-01T10:04:09.230Z,100855.22
2023-02-01T10:07:02.344Z,100862.88
2023-02-01T10:09:40.705Z,100865.38
2023-02-01T10:12:51.215Z,100853.06
2023-02-01T10:15:35.624Z,100852.38
2023-02-01T10:18:41.491Z,100850.38
2023-02-01T10:21:28.153Z,100852.84
2023-02-01T10:24:03.550Z,100858.03
2023-02-01T10:26:43.977Z,100842.47
2023-02-01T10:29:24.091Z,100854.50
2023-02-01T10:31:51.362Z,100856.41
2023-02-01T10:34:27.549Z,100845.03
2023-02-01T10:37:02.769Z,100840.78
2023-02-01T10:39:29.759Z,100825.69
2023-02-01T10:41:57.974Z,100840.53
2023-02-01T10:44:30.016Z,100845.88
2023-02-01T10:46:57.107Z,100843.41
2023-02-01T10:49:44.862Z,100828.47
2023-02-01T10:52:31.743Z,100824.56
2023-02-01T10:55:39.362Z,100819.50
2023-02-01T10:58:20.406Z,100809.06
2023-02-01T11:01:01.389Z,100796.44
2023-02-01T11:04:01.299Z,100794.50
2023-02-01T11:06:36.738Z,100790.22
2023-02-01T11:09:17.583Z,100791.25
2023-02-01T11:11:50.336Z,100787.38
2023-02-01T11:14:48.609Z,100759.34
2023-02-01T11:17:15.497Z,100764.91
2023-02-01T11:19:57.769Z,100762.41
2023-02-01T11:22:28.895Z,100737.00
2023-02-01T11:24:58.204Z,100739.94
2023-02-01T11:27:28.058Z,100738.03
2023-02-01T11:30:00.937Z,100737.16
2023-02-01T11:32:28.592Z,100728.44
2023-02-01T11:35:06.141Z,100724.44
2023-02-01T11:37:38.695Z,100697.47
2023-02-01T11:40:30.490Z,100699.47
2023-02-01T11:43:07.947Z,100712.22
2023-02-01T11:45:38.376Z,100696.78
2023-02-01T11:48:15.062Z,100715.44
2023-02-01T11:51:29.779Z,100700.41
2023-02-01T11:54:39.070Z,100681.88
2023-02-01T11:57:25.906Z,100694.88
2023-02-01T12:00:33.808Z,100679.75
2023-02-01T12:03:33.411Z,100700.50
2023-02-01T12:06:22.925Z,100691.22
2023-02-01T12:09:06.878Z,100692.19
2023-02-01T12:12:09.178Z,100665.31
2023-02-01T12:14:57.323Z,100680.91
2023-02-01T12:17:52.150Z,100683.59
2023-02-01T12:20:49.921Z,100668.25
2023-02-01T12:23:44.471Z,100652.75
2023-02-01T12:26:44.017Z,100661.06
2023-02-01T12:29:40.588Z,100651.34
2023-02-01T12:32:21.859Z,100667.19
2023-02-01T12:35:34.737Z,100651.44
2023-02-01T12:38:43.736Z,100660.03
2023-02-01T12:41:32.087Z,100657.03
2023-02-01T12:44:08.002Z,100641.66
2023-02-01T12:46:47.376Z,100613.41
2023-02-01T12:49:26.597Z,100631.97
2023-02-01T12:52:11.551Z,100614.81
2023-02-01T12:55:09.447Z,100622.72
2023-02-01T12:57:48.223Z,100634.31
2023-02-01T13:00:41.686Z,100629.91
2023-02-01T13:03:38.899Z,100647.06
2023-02-01T13:06:13.344Z,100661.03
2023-02-01T13:09:16.514Z,100657.84
2023-02-01T13:11:46.475Z,100640.19
2023-02-01T13:14:38.303Z,100644.66
2023-02-01T13:17:26.051Z,100643.88
2023-02-01T13:20:20.563Z,100661.44
2023-02-01T13:23:02.109Z,100668.84
2023-02-01T13:25:50.594Z,100722.38
2023-02-01T13:28:42.107Z,100755.66
2023-02-01T13:31:19.507Z,100752.66
2023-02-01T13:34:11.208Z,100759.25
2023-02-01T13:37:26.515Z,100793.03
2023-02-01T13:40:42.120Z,100810.84
2023-02-01T13:43:30.212Z,100793.34
2023-02-01T13:46:08.139Z,100772.28
2023-02-01T13:49:03.671Z,100778.09
2023-02-01T13:51:46.851Z,100795.19
2023-02-01T13:54:33.013Z,100806.81
2023-02-01T13:57:02.127Z,100806.94
2023-02-01T13:59:41.481Z,100797.25
2023-02-01T14:02:38.188Z,100779.81
2023-02-01T14:05:32.012Z,100800.34
2023-02-01T14:08:08.051Z,100794.00
2023-02-01T14:10:59.223Z,100806.69
2023-02-01T14:13:42.097Z,100783.88
2023-02-01T14:16:14.484Z,100767.44
2023-02-01T14:18:46.565Z,100774.94
2023-02-01T14:21:22.848Z,100773.09
2023-02-01T14:24:10.748Z,100796.69
2023-02-01T14:26:59.619Z,100788.16
2023-02-01T14:29:40.379Z,100788.69
2023-02-01T14:32:22.811Z,100786.97
2023-02-01T14:34:49.803Z,100794.81
2023-02-01T14:37:19.740Z,100786.78
2023-02-01T14:39:46.569Z,100766.13
2023-02-01T14:42:45.585Z,100763.97
2023-02-01T14:45:25.046Z,100757.44
2023-02-01T14:47:57.308Z,100763.28
2023-02-01T14:50:41.884Z,100763.78
2023-02-01T14:53:20.043Z,100747.75
2023-02-01T14:56:02.692Z,100760.13
2023-02-01T14:58:35.739Z,100758.69
2023-02-01T15:01:07.364Z,100757.09
2023-02-01T15:04:08.070Z,100753.16
2023-02-01T15:06:57.498Z,100781.91
2023-02-01T15:09:32.606Z,100770.34
2023-02-01T15:12:13.624Z,100771.56
2023-02-01T15:14:50.500Z,100770.41
2023-02-01T15:17:34.942Z,100768.19
2023-02-01T15:20:26.969Z,100749.31
2023-02-01T15:23:15.493Z,100748.59
2023-02-01T15:25:47.936Z,100760.09
2023-02-01T15:28:17.240Z,100752.72
2023-02-01T15:31:09.319Z,100751.84
2023-02-01T15:33:36.392Z,100754.34
2023-02-01T15:36:19.176Z,100753.47
2023-02-01T15:38:46.301Z,100778.50
2023-02-01T15:41:19.784Z,100758.75
2023-02-01T15:43:55.705Z,100771.91
2023-02-01T15:46:36.897Z,100763.75
2023-02-01T15:49:05.038Z,100751.69
2023-02-01T15:51:36.190Z,100770.81
2023-02-01T15:54:09.036Z,100764.59
2023-02-01T15:56:39.592Z,100782.19
2023-02-01T15:59:17.881Z,100789.16
2023-02-01T16:01:45.350Z,100794.13
2023-02-01T16:04:27.776Z,100811.53
2023-02-01T16:07:01.895Z,100790.97
2023-02-01T16:09:54.044Z,100806.53
2023-02-01T16:12:39.070Z,100806.78
2023-02-01T16:15:07.209Z,100795.44
2023-02-01T16:17:34.287Z,100798.59
2023-02-01T16:20:01.177Z,100800.41
2023-02-01T16:22:28.215Z,100807.38
2023-02-01T16:24:55.135Z,100812.34
2023-02-01T16:27:23.253Z,100814.75
2023-02-01T16:29:50.867Z,100817.88
2023-02-01T16:32:21.032Z,100818.16
2023-02-01T16:34:48.924Z,100814.06
2023-02-01T16:37:25.305Z,100823.75
2023-02-01T16:39:52.666Z,100826.75
2023-02-01T16:42:19.641Z,100819.25
2023-02-01T16:44:46.565Z,100833.91
2023-02-01T16:47:19.037Z,100835.38
2023-02-01T16:49:47.192Z,100829.94
2023-02-01T16:52:24.170Z,100830.72
2023-02-01T16:54:51.225Z,100832.78
2023-02-01T16:57:23.406Z,100857.19
2023-02-01T16:59:50.816Z,100842.09
2023-02-01T17:02:20.399Z,100858.63
2023-02-01T17:04:49.679Z,100867.44
2023-02-01T17:07:19.520Z,100861.00
2023-02-01T17:09:48.217Z,100848.94
2023-02-01T17:12:31.520Z,100852.97
2023-02-01T17:14:58.954Z,100864.25
2023-02-01T17:17:39.231Z,100857.09
2023-02-01T17:20:07.539Z,100865.03
2023-02-01T17:22:34.870Z,100857.53
2023-02-01T17:25:01.823Z,100852.78
2023-02-01T17:27:30.167Z,100840.47
2023-02-01T17:29:57.216Z,100864.16
2023-02-01T17:32:26.207Z,100860.44
2023-02-01T17:34:53.245Z,100872.09
2023-02-01T17:37:29.021Z,100866.94
2023-02-01T17:39:56.158Z,100875.97
2023-02-01T17:42:25.572Z,100881.50
2023-02-01T17:45:03.003Z,100879.00
2023-02-01T17:47:29.932Z,100887.94
2023-02-01T17:49:57.266Z,100887.09
2023-02-01T17:52:26.201Z,100877.25
2023-02-01T17:54:54.137Z,100876.50
2023-02-01T17:57:21.800Z,100895.03
2023-02-01T17:59:48.950Z,100882.28
2023-02-01T18:02:24.797Z,100886.41
2023-02-01T18:04:52.333Z,100885.19
2023-02-01T18:07:19.410Z,100878.38
2023-02-01T18:09:46.437Z,100898.50
2023-02-01T18:12:22.323Z,100895.09
2023-02-01T18:14:49.370Z,100892.44
2023-02-01T18:17:16.283Z,100904.09
2023-02-01T18:19:43.149Z,100907.78
2023-02-01T18:22:17.962Z,100911.22
2023-02-01T18:24:44.907Z,100913.06
2023-02-01T18:27:11.817Z,100895.44
2023-02-01T18:29:38.716Z,100896.25
2023-02-01T18:32:05.726Z,100908.47
2023-02-01T18:34:32.629Z,100917.63
2023-02-01T18:36:59.568Z,100900.63
2023-02-01T18:39:27.269Z,100912.97
2023-02-01T18:41:54.258Z,100927.91
2023-02-01T18:44:21.267Z,100926.06
2023-02-01T18:46:48.189Z,100923.56
2023-02-01T18:49:18.660Z,100923.75
2023-02-01T18:51:46.666Z,100922.03
2023-02-01T18:54:13.640Z,100921.22
2023-02-01T18:56:40.605Z,100916.78
2023-02-01T18:59:09.037Z,100931.06
2023-02-01T19:01:35.953Z,100932.06
2023-02-01T19:04:09.616Z,100926.47
2023-02-01T19:06:38.300Z,100928.91
2023-02-01T19:09:05.501Z,100943.16
2023-02-01T19:11:32.433Z,100926.41
2023-02-01T19:14:00.334Z,100929.25
2023-02-01T19:16:27.338Z,100939.78
2023-02-01T19:18:54.396Z,100937.38
2023-02-01T19:21:21.298Z,100920.09
2023-02-01T19:23:48.381Z,100934.00
2023-02-01T19:26:18.403Z,100941.75
2023-02-01T19:28:47.741Z,100928.81
2023-02-01T19:31:16.446Z,100932.88
2023-02-01T19:33:43.615Z,100922.69
2023-02-01T19:36:11.210Z,100930.38
2023-02-01T19:38:40.078Z,100938.22
2023-02-01T19:41:07.135Z,100940.09
2023-02-01T19:43:35.314Z,100931.06
2023-02-01T19:46:02.955Z,100936.41
2023-02-01T19:48:31.556Z,100932.38
2023-02-01T19:50:59.114Z,100954.19
2023-02-01T19:53:27.908Z,100964.94
2023-02-01T19:55:56.987Z,100963.91
2023-02-01T19:58:26.076Z,100968.25
2023-02-01T20:00:56.904Z,100961.91
2023-02-01T20:03:24.492Z,100960.97
2023-02-01T20:05:53.445Z,100961.91
2023-02-01T20:08:21.485Z,100960.47
2023-02-01T20:10:48.622Z,100954.44
2023-02-01T20:13:15.853Z,100958.34
2023-02-01T20:15:43.497Z,100958.53
2023-02-01T20:18:10.937Z,100962.16
2023-02-01T20:20:38.076Z,100969.47
2023-02-01T20:23:06.299Z,100959.97
2023-02-01T20:25:34.159Z,100963.59
2023-02-01T20:28:01.506Z,100961.25
2023-02-01T20:30:29.384Z,100963.25
2023-02-01T20:32:56.485Z,100967.53
2023-02-01T20:35:23.851Z,100960.81
2023-02-01T20:37:51.789Z,100963.47
2023-02-01T20:40:19.007Z,100968.19
2023-02-01T20:42:46.098Z,100975.00
2023-02-01T20:45:13.298Z,100963.81
2023-02-01T20:47:42.214Z,100965.69
2023-02-01T20:50:10.372Z,100959.66
2023-02-01T20:52:37.297Z,100963.25
2023-02-01T20:55:04.648Z,100975.44
2023-02-01T20:57:31.560Z,100983.59
2023-02-01T20:59:58.624Z,100977.66
2023-02-01T21:02:25.798Z,100981.03
2023-02-01T21:04:52.781Z,100992.53
2023-02-01T21:07:20.333Z,100973.41
2023-02-01T21:09:47.237Z,100993.66
2023-02-01T21:12:14.165Z,100989.41
2023-02-01T21:14:41.113Z,100992.72
2023-02-01T21:17:08.042Z,101008.81
2023-02-01T21:19:43.322Z,100995.41
2023-02-01T21:22:12.619Z,100989.09
2023-02-01T21:24:43.155Z,100998.91
2023-02-01T21:27:10.741Z,100990.91
2023-02-01T21:29:39.031Z,100983.84
2023-02-01T21:32:08.077Z,100998.69
2023-02-01T21:34:35.862Z,100996.25
2023-02-01T21:37:02.960Z,101010.38
2023-02-01T21:39:29.938Z,101005.75
2023-02-01T21:42:26.586Z,101009.28
2023-02-01T21:44:55.081Z,100998.69
2023-02-01T21:47:26.023Z,101010.22
2023-02-01T21:49:53.315Z,101011.88
2023-02-01T21:52:20.743Z,101016.44
2023-02-01T21:58:54.101Z,101029.06
2023-02-01T22:01:21.613Z,101020.19
2023-02-01T22:03:49.356Z,101021.81
2023-02-01T22:06:35.878Z,101034.22
2023-02-01T22:09:04.416Z,101026.56
2023-02-01T22:11:31.880Z,101028.38
2023-02-01T22:13:58.790Z,101035.81
2023-02-01T22:16:25.800Z,101048.28
2023-02-01T22:18:54.198Z,101023.78
2023-02-01T22:21:23.309Z,101056.50
2023-02-01T22:23:55.192Z,101053.13
2023-02-01T22:26:22.822Z,101053.25
2023-02-01T22:28:50.091Z,101054.38
2023-02-01T22:31:18.173Z,101057.91
2023-02-01T22:33:49.760Z,101057.28
2023-02-01T22:36:17.667Z,101061.72
2023-02-01T22:38:46.240Z,101065.34
2023-02-01T22:41:13.819Z,101063.69
2023-02-01T22:43:40.889Z,101063.00
2023-02-01T22:46:12.625Z,101068.31
2023-02-01T22:48:41.666Z,101068.31
2023-02-01T22:51:16.337Z,101075.69
2023-02-01T22:53:43.426Z,101074.88
2023-02-01T22:56:12.928Z,101078.34
2023-02-01T22:58:40.260Z,101082.91
2023-02-01T23:01:13.301Z,101080.59
2023-02-01T23:03:40.535Z,101085.00
2023-02-01T23:06:09.157Z,101083.25
2023-02-01T23:08:39.229Z,101095.75
2023-02-01T23:11:09.855Z,101098.50
2023-02-01T23:13:39.167Z,101085.44
2023-02-01T23:16:13.129Z,101090.03
2023-02-01T23:18:41.550Z,101090.88
2023-02-01T23:21:16.437Z,101095.34
2023-02-01T23:23:59.100Z,101103.41
2023-02-01T23:26:29.309Z,101108.69
2023-02-01T23:28:57.563Z,101119.38
2023-02-01T23:31:30.763Z,101120.31
2023-02-01T23:33:59.783Z,101113.38
2023-02-01T23:36:28.408Z,101118.16
2023-02-01T23:38:55.883Z,101112.03
2023-02-01T23:41:23.812Z,101121.59
2023-02-01T23:43:57.677Z,101120.75
2023-02-01T23:46:34.858Z,101129.59
2023-02-01T23:49:04.151Z,101122.53
2023-02-01T23:51:31.908Z,101119.94
2023-02-01T23:53:59.817Z,101124.34
2023-02-01T23:56:34.074Z,101117.50
2023-02-01T23:59:04.409Z,101127.16
